sensor_id;sensor_type;location;lat;lon;timestamp;temperature;humidity
34644;DHT22;26931;43.498;-1.506;2022-12-10T00:01:06;10.30;92.60
34644;DHT22;26931;43.498;-1.506;2022-12-10T00:03:32;10.20;92.60
34644;DHT22;26931;43.498;-1.506;2022-12-10T00:06:07;10.20;92.50
34644;DHT22;26931;43.498;-1.506;2022-12-10T00:08:34;10.20;92.40
34644;DHT22;26931;43.498;-1.506;2022-12-10T00:11:03;10.10;92.40
34644;DHT22;26931;43.498;-1.506;2022-12-10T00:13:29;10.10;92.30
34644;DHT22;26931;43.498;-1.506;2022-12-10T00:15:55;10.10;92.30
34644;DHT22;26931;43.498;-1.506;2022-12-10T00:18:24;10.00;92.20
34644;DHT22;26931;43.498;-1.506;2022-12-10T00:20:50;10.00;92.20
34644;DHT22;26931;43.498;-1.506;2022-12-10T00:23:16;9.80;92.10
34644;DHT22;26931;43.498;-1.506;2022-12-10T00:25:42;10.00;92.10
34644;DHT22;26931;43.498;-1.506;2022-12-10T00:28:08;10.10;92.10
34644;DHT22;26931;43.498;-1.506;2022-12-10T00:30:34;9.90;92.00
34644;DHT22;26931;43.498;-1.506;2022-12-10T00:33:00;9.90;92.10
34644;DHT22;26931;43.498;-1.506;2022-12-10T00:35:27;9.90;92.10
34644;DHT22;26931;43.498;-1.506;2022-12-10T00:37:53;9.80;92.00
34644;DHT22;26931;43.498;-1.506;2022-12-10T00:40:19;9.90;92.00
34644;DHT22;26931;43.498;-1.506;2022-12-10T00:42:45;9.80;92.00
34644;DHT22;26931;43.498;-1.506;2022-12-10T00:45:11;9.80;91.90
34644;DHT22;26931;43.498;-1.506;2022-12-10T00:47:37;9.80;92.00
34644;DHT22;26931;43.498;-1.506;2022-12-10T00:50:03;9.80;92.00
34644;DHT22;26931;43.498;-1.506;2022-12-10T00:52:29;9.80;92.10
34644;DHT22;26931;43.498;-1.506;2022-12-10T00:54:55;9.70;92.00
34644;DHT22;26931;43.498;-1.506;2022-12-10T00:57:21;9.70;92.00
34644;DHT22;26931;43.498;-1.506;2022-12-10T00:59:47;9.70;91.90
34644;DHT22;26931;43.498;-1.506;2022-12-10T01:02:13;9.70;91.90
34644;DHT22;26931;43.498;-1.506;2022-12-10T01:04:39;9.70;91.90
34644;DHT22;26931;43.498;-1.506;2022-12-10T01:07:05;9.70;91.80
34644;DHT22;26931;43.498;-1.506;2022-12-10T01:09:32;9.60;91.90
34644;DHT22;26931;43.498;-1.506;2022-12-10T01:12:02;9.60;92.00
34644;DHT22;26931;43.498;-1.506;2022-12-10T01:14:34;9.60;92.00
34644;DHT22;26931;43.498;-1.506;2022-12-10T01:17:15;9.60;92.00
34644;DHT22;26931;43.498;-1.506;2022-12-10T01:19:47;9.50;92.10
34644;DHT22;26931;43.498;-1.506;2022-12-10T01:22:18;9.50;92.00
34644;DHT22;26931;43.498;-1.506;2022-12-10T01:24:52;9.50;92.10
34644;DHT22;26931;43.498;-1.506;2022-12-10T01:27:26;9.40;92.00
34644;DHT22;26931;43.498;-1.506;2022-12-10T01:30:03;9.30;91.90
34644;DHT22;26931;43.498;-1.506;2022-12-10T01:32:33;9.20;92.00
34644;DHT22;26931;43.498;-1.506;2022-12-10T01:35:06;9.20;92.00
34644;DHT22;26931;43.498;-1.506;2022-12-10T01:37:34;9.10;92.00
34644;DHT22;26931;43.498;-1.506;2022-12-10T01:40:03;9.00;92.10
34644;DHT22;26931;43.498;-1.506;2022-12-10T01:42:35;8.90;92.20
34644;DHT22;26931;43.498;-1.506;2022-12-10T01:45:08;8.90;92.30
34644;DHT22;26931;43.498;-1.506;2022-12-10T01:47:43;8.90;92.20
34644;DHT22;26931;43.498;-1.506;2022-12-10T01:50:09;8.90;92.20
34644;DHT22;26931;43.498;-1.506;2022-12-10T01:52:40;8.70;92.30
34644;DHT22;26931;43.498;-1.506;2022-12-10T01:55:46;8.60;92.40
34644;DHT22;26931;43.498;-1.506;2022-12-10T01:58:16;8.60;92.40
34644;DHT22;26931;43.498;-1.506;2022-12-10T02:00:57;8.50;92.30
34644;DHT22;26931;43.498;-1.506;2022-12-10T02:03:43;8.50;92.40
34644;DHT22;26931;43.498;-1.506;2022-12-10T02:09:04;8.40;92.30
34644;DHT22;26931;43.498;-1.506;2022-12-10T02:11:46;8.40;92.40
34644;DHT22;26931;43.498;-1.506;2022-12-10T02:14:19;8.40;92.40
34644;DHT22;26931;43.498;-1.506;2022-12-10T02:17:11;8.50;92.40
34644;DHT22;26931;43.498;-1.506;2022-12-10T02:22:14;8.50;92.30
34644;DHT22;26931;43.498;-1.506;2022-12-10T02:24:52;8.40;92.40
34644;DHT22;26931;43.498;-1.506;2022-12-10T02:30:12;8.40;92.30
34644;DHT22;26931;43.498;-1.506;2022-12-10T02:32:43;8.40;92.60
34644;DHT22;26931;43.498;-1.506;2022-12-10T02:35:20;8.30;92.30
34644;DHT22;26931;43.498;-1.506;2022-12-10T02:38:15;8.20;92.40
34644;DHT22;26931;43.498;-1.506;2022-12-10T02:40:46;8.20;92.50
34644;DHT22;26931;43.498;-1.506;2022-12-10T02:43:17;8.50;92.50
34644;DHT22;26931;43.498;-1.506;2022-12-10T02:45:43;8.20;92.40
34644;DHT22;26931;43.498;-1.506;2022-12-10T02:48:14;8.20;92.40
34644;DHT22;26931;43.498;-1.506;2022-12-10T02:50:51;8.20;92.40
34644;DHT22;26931;43.498;-1.506;2022-12-10T02:53:20;8.30;92.30
34644;DHT22;26931;43.498;-1.506;2022-12-10T02:56:12;8.30;92.10
34644;DHT22;26931;43.498;-1.506;2022-12-10T02:58:59;8.30;92.00
34644;DHT22;26931;43.498;-1.506;2022-12-10T03:04:14;8.20;91.80
34644;DHT22;26931;43.498;-1.506;2022-12-10T03:06:53;8.20;91.60
34644;DHT22;26931;43.498;-1.506;2022-12-10T03:09:36;8.10;91.50
34644;DHT22;26931;43.498;-1.506;2022-12-10T03:15:02;8.00;91.20
34644;DHT22;26931;43.498;-1.506;2022-12-10T03:17:31;8.00;91.10
34644;DHT22;26931;43.498;-1.506;2022-12-10T03:19:58;8.00;91.00
34644;DHT22;26931;43.498;-1.506;2022-12-10T03:22:30;7.90;90.90
34644;DHT22;26931;43.498;-1.506;2022-12-10T03:25:01;7.90;90.80
34644;DHT22;26931;43.498;-1.506;2022-12-10T03:27:30;7.90;90.60
34644;DHT22;26931;43.498;-1.506;2022-12-10T03:30:01;7.80;90.60
34644;DHT22;26931;43.498;-1.506;2022-12-10T03:32:29;7.80;90.50
34644;DHT22;26931;43.498;-1.506;2022-12-10T03:35:00;7.80;90.30
34644;DHT22;26931;43.498;-1.506;2022-12-10T03:37:30;7.70;90.20
34644;DHT22;26931;43.498;-1.506;2022-12-10T03:39:59;7.60;90.20
34644;DHT22;26931;43.498;-1.506;2022-12-10T03:42:28;7.60;90.20
34644;DHT22;26931;43.498;-1.506;2022-12-10T03:44:57;7.60;90.20
34644;DHT22;26931;43.498;-1.506;2022-12-10T03:47:27;7.50;90.00
34644;DHT22;26931;43.498;-1.506;2022-12-10T03:49:56;7.70;90.00
34644;DHT22;26931;43.498;-1.506;2022-12-10T03:52:27;7.50;89.60
34644;DHT22;26931;43.498;-1.506;2022-12-10T03:54:54;7.60;89.40
34644;DHT22;26931;43.498;-1.506;2022-12-10T03:57:23;7.50;88.90
34644;DHT22;26931;43.498;-1.506;2022-12-10T03:59:53;7.50;89.20
34644;DHT22;26931;43.498;-1.506;2022-12-10T04:02:22;7.20;88.90
34644;DHT22;26931;43.498;-1.506;2022-12-10T04:04:51;7.30;88.80
34644;DHT22;26931;43.498;-1.506;2022-12-10T04:07:17;7.30;89.00
34644;DHT22;26931;43.498;-1.506;2022-12-10T04:09:49;7.30;88.80
34644;DHT22;26931;43.498;-1.506;2022-12-10T04:12:19;7.30;88.70
34644;DHT22;26931;43.498;-1.506;2022-12-10T04:14:45;7.20;88.40
34644;DHT22;26931;43.498;-1.506;2022-12-10T04:17:32;7.10;88.40
34644;DHT22;26931;43.498;-1.506;2022-12-10T04:19:59;7.10;88.40
34644;DHT22;26931;43.498;-1.506;2022-12-10T04:22:25;7.10;88.50
34644;DHT22;26931;43.498;-1.506;2022-12-10T04:25:10;7.10;88.20
34644;DHT22;26931;43.498;-1.506;2022-12-10T04:27:55;7.00;88.10
34644;DHT22;26931;43.498;-1.506;2022-12-10T04:30:21;6.90;88.20
34644;DHT22;26931;43.498;-1.506;2022-12-10T04:32:47;6.90;88.00
34644;DHT22;26931;43.498;-1.506;2022-12-10T04:35:12;6.90;87.80
34644;DHT22;26931;43.498;-1.506;2022-12-10T04:37:39;6.80;87.80
34644;DHT22;26931;43.498;-1.506;2022-12-10T04:40:05;6.70;88.00
34644;DHT22;26931;43.498;-1.506;2022-12-10T04:42:36;6.70;87.90
34644;DHT22;26931;43.498;-1.506;2022-12-10T04:45:03;6.70;87.90
34644;DHT22;26931;43.498;-1.506;2022-12-10T04:47:29;6.70;87.70
34644;DHT22;26931;43.498;-1.506;2022-12-10T04:49:59;6.70;87.30
34644;DHT22;26931;43.498;-1.506;2022-12-10T04:52:28;6.90;87.10
34644;DHT22;26931;43.498;-1.506;2022-12-10T04:54:54;6.60;86.70
34644;DHT22;26931;43.498;-1.506;2022-12-10T04:57:20;6.60;86.50
34644;DHT22;26931;43.498;-1.506;2022-12-10T04:59:46;6.60;86.30
34644;DHT22;26931;43.498;-1.506;2022-12-10T05:02:12;6.50;86.20
34644;DHT22;26931;43.498;-1.506;2022-12-10T05:04:37;6.50;86.50
34644;DHT22;26931;43.498;-1.506;2022-12-10T05:07:06;6.50;86.10
34644;DHT22;26931;43.498;-1.506;2022-12-10T05:09:32;6.30;85.70
34644;DHT22;26931;43.498;-1.506;2022-12-10T05:11:58;6.50;85.60
34644;DHT22;26931;43.498;-1.506;2022-12-10T05:14:28;6.50;85.70
34644;DHT22;26931;43.498;-1.506;2022-12-10T05:16:57;6.50;85.70
34644;DHT22;26931;43.498;-1.506;2022-12-10T05:19:23;6.40;85.70
34644;DHT22;26931;43.498;-1.506;2022-12-10T05:21:52;6.40;86.00
34644;DHT22;26931;43.498;-1.506;2022-12-10T05:24:37;6.40;85.80
34644;DHT22;26931;43.498;-1.506;2022-12-10T05:27:07;6.30;86.10
34644;DHT22;26931;43.498;-1.506;2022-12-10T05:29:33;6.30;86.00
34644;DHT22;26931;43.498;-1.506;2022-12-10T05:31:59;6.20;85.90
34644;DHT22;26931;43.498;-1.506;2022-12-10T05:34:26;6.40;86.20
34644;DHT22;26931;43.498;-1.506;2022-12-10T05:36:54;6.20;85.80
34644;DHT22;26931;43.498;-1.506;2022-12-10T05:39:20;6.20;85.70
34644;DHT22;26931;43.498;-1.506;2022-12-10T05:41:49;6.20;85.40
34644;DHT22;26931;43.498;-1.506;2022-12-10T05:44:18;6.20;85.20
34644;DHT22;26931;43.498;-1.506;2022-12-10T05:46:44;6.20;85.10
34644;DHT22;26931;43.498;-1.506;2022-12-10T05:49:10;6.10;85.00
34644;DHT22;26931;43.498;-1.506;2022-12-10T05:51:37;6.10;84.90
34644;DHT22;26931;43.498;-1.506;2022-12-10T05:54:05;6.10;84.90
34644;DHT22;26931;43.498;-1.506;2022-12-10T05:56:32;6.30;84.70
34644;DHT22;26931;43.498;-1.506;2022-12-10T05:59:00;6.10;84.50
34644;DHT22;26931;43.498;-1.506;2022-12-10T06:01:31;6.10;84.40
34644;DHT22;26931;43.498;-1.506;2022-12-10T06:04:00;6.10;84.10
34644;DHT22;26931;43.498;-1.506;2022-12-10T06:06:31;6.10;84.20
34644;DHT22;26931;43.498;-1.506;2022-12-10T06:08:59;6.10;84.20
34644;DHT22;26931;43.498;-1.506;2022-12-10T06:11:28;6.10;84.30
34644;DHT22;26931;43.498;-1.506;2022-12-10T06:13:57;6.20;83.90
34644;DHT22;26931;43.498;-1.506;2022-12-10T06:16:27;6.50;83.80
34644;DHT22;26931;43.498;-1.506;2022-12-10T06:18:57;6.20;83.40
34644;DHT22;26931;43.498;-1.506;2022-12-10T06:21:26;6.20;83.30
34644;DHT22;26931;43.498;-1.506;2022-12-10T06:23:52;6.20;83.30
34644;DHT22;26931;43.498;-1.506;2022-12-10T06:26:21;6.20;82.70
34644;DHT22;26931;43.498;-1.506;2022-12-10T06:28:52;6.10;82.80
34644;DHT22;26931;43.498;-1.506;2022-12-10T06:31:19;6.00;82.90
34644;DHT22;26931;43.498;-1.506;2022-12-10T06:33:49;6.10;82.90
34644;DHT22;26931;43.498;-1.506;2022-12-10T06:36:16;6.20;82.50
34644;DHT22;26931;43.498;-1.506;2022-12-10T06:38:43;6.30;82.70
34644;DHT22;26931;43.498;-1.506;2022-12-10T06:41:14;6.20;82.90
34644;DHT22;26931;43.498;-1.506;2022-12-10T06:43:44;6.20;83.00
34644;DHT22;26931;43.498;-1.506;2022-12-10T06:46:16;6.20;82.90
34644;DHT22;26931;43.498;-1.506;2022-12-10T06:48:48;6.10;83.40
34644;DHT22;26931;43.498;-1.506;2022-12-10T06:51:18;6.20;83.50
34644;DHT22;26931;43.498;-1.506;2022-12-10T06:53:44;6.20;83.90
34644;DHT22;26931;43.498;-1.506;2022-12-10T06:56:16;6.20;83.80
34644;DHT22;26931;43.498;-1.506;2022-12-10T06:58:43;6.30;84.00
34644;DHT22;26931;43.498;-1.506;2022-12-10T07:01:12;6.20;83.90
34644;DHT22;26931;43.498;-1.506;2022-12-10T07:03:42;6.10;84.00
34644;DHT22;26931;43.498;-1.506;2022-12-10T07:06:10;6.10;84.50
34644;DHT22;26931;43.498;-1.506;2022-12-10T07:08:39;5.90;84.80
34644;DHT22;26931;43.498;-1.506;2022-12-10T07:11:07;6.00;85.60
34644;DHT22;26931;43.498;-1.506;2022-12-10T07:13:37;6.00;85.30
34644;DHT22;26931;43.498;-1.506;2022-12-10T07:16:20;6.00;85.30
34644;DHT22;26931;43.498;-1.506;2022-12-10T07:18:49;6.00;85.10
34644;DHT22;26931;43.498;-1.506;2022-12-10T07:21:34;5.90;85.20
34644;DHT22;26931;43.498;-1.506;2022-12-10T07:24:02;6.00;85.60
34644;DHT22;26931;43.498;-1.506;2022-12-10T07:26:30;6.00;85.50
34644;DHT22;26931;43.498;-1.506;2022-12-10T07:29:04;6.00;85.20
34644;DHT22;26931;43.498;-1.506;2022-12-10T07:31:30;5.90;84.90
34644;DHT22;26931;43.498;-1.506;2022-12-10T07:33:58;5.90;85.20
34644;DHT22;26931;43.498;-1.506;2022-12-10T07:36:27;5.70;85.30
34644;DHT22;26931;43.498;-1.506;2022-12-10T07:38:54;5.80;85.80
34644;DHT22;26931;43.498;-1.506;2022-12-10T07:41:21;5.80;86.30
34644;DHT22;26931;43.498;-1.506;2022-12-10T07:43:51;5.60;86.60
34644;DHT22;26931;43.498;-1.506;2022-12-10T07:46:23;5.80;87.10
34644;DHT22;26931;43.498;-1.506;2022-12-10T07:48:56;5.80;87.90
34644;DHT22;26931;43.498;-1.506;2022-12-10T07:51:29;5.70;87.50
34644;DHT22;26931;43.498;-1.506;2022-12-10T07:53:58;5.70;87.80
34644;DHT22;26931;43.498;-1.506;2022-12-10T07:56:25;5.80;88.00
34644;DHT22;26931;43.498;-1.506;2022-12-10T07:58:54;5.80;88.30
34644;DHT22;26931;43.498;-1.506;2022-12-10T08:01:25;5.70;88.40
34644;DHT22;26931;43.498;-1.506;2022-12-10T08:03:52;5.70;88.80
34644;DHT22;26931;43.498;-1.506;2022-12-10T08:06:20;5.60;89.10
34644;DHT22;26931;43.498;-1.506;2022-12-10T08:08:47;5.60;89.40
34644;DHT22;26931;43.498;-1.506;2022-12-10T08:11:14;5.60;89.70
34644;DHT22;26931;43.498;-1.506;2022-12-10T08:13:43;5.60;89.80
34644;DHT22;26931;43.498;-1.506;2022-12-10T08:16:16;5.70;90.00
34644;DHT22;26931;43.498;-1.506;2022-12-10T08:18:43;5.60;90.00
34644;DHT22;26931;43.498;-1.506;2022-12-10T08:21:13;5.60;90.40
34644;DHT22;26931;43.498;-1.506;2022-12-10T08:23:40;5.60;90.10
34644;DHT22;26931;43.498;-1.506;2022-12-10T08:26:09;5.50;90.20
34644;DHT22;26931;43.498;-1.506;2022-12-10T08:28:37;5.70;90.60
34644;DHT22;26931;43.498;-1.506;2022-12-10T08:31:04;5.60;90.30
34644;DHT22;26931;43.498;-1.506;2022-12-10T08:33:37;5.60;90.30
34644;DHT22;26931;43.498;-1.506;2022-12-10T08:36:08;5.60;90.50
34644;DHT22;26931;43.498;-1.506;2022-12-10T08:38:39;5.70;90.50
34644;DHT22;26931;43.498;-1.506;2022-12-10T08:41:18;5.70;90.40
34644;DHT22;26931;43.498;-1.506;2022-12-10T08:43:48;5.70;90.40
34644;DHT22;26931;43.498;-1.506;2022-12-10T08:46:15;5.80;90.30
34644;DHT22;26931;43.498;-1.506;2022-12-10T08:48:44;5.90;90.30
34644;DHT22;26931;43.498;-1.506;2022-12-10T08:51:13;5.80;90.30
34644;DHT22;26931;43.498;-1.506;2022-12-10T08:53:40;5.80;90.20
34644;DHT22;26931;43.498;-1.506;2022-12-10T08:56:06;5.70;90.20
34644;DHT22;26931;43.498;-1.506;2022-12-10T08:58:33;5.70;90.20
34644;DHT22;26931;43.498;-1.506;2022-12-10T09:00:59;5.80;90.10
34644;DHT22;26931;43.498;-1.506;2022-12-10T09:03:27;5.90;90.00
34644;DHT22;26931;43.498;-1.506;2022-12-10T09:05:53;5.80;89.50
34644;DHT22;26931;43.498;-1.506;2022-12-10T09:08:18;6.00;89.20
34644;DHT22;26931;43.498;-1.506;2022-12-10T09:10:45;6.10;88.80
34644;DHT22;26931;43.498;-1.506;2022-12-10T09:13:11;6.10;88.00
34644;DHT22;26931;43.498;-1.506;2022-12-10T09:15:37;6.10;87.90
34644;DHT22;26931;43.498;-1.506;2022-12-10T09:18:03;6.10;87.80
34644;DHT22;26931;43.498;-1.506;2022-12-10T09:20:32;6.20;87.40
34644;DHT22;26931;43.498;-1.506;2022-12-10T09:22:58;6.30;87.10
34644;DHT22;26931;43.498;-1.506;2022-12-10T09:25:27;6.30;86.60
34644;DHT22;26931;43.498;-1.506;2022-12-10T09:27:56;6.40;85.70
34644;DHT22;26931;43.498;-1.506;2022-12-10T09:30:22;6.50;84.60
34644;DHT22;26931;43.498;-1.506;2022-12-10T09:32:51;6.60;83.60
34644;DHT22;26931;43.498;-1.506;2022-12-10T09:35:20;6.60;83.00
34644;DHT22;26931;43.498;-1.506;2022-12-10T09:37:46;6.70;82.60
34644;DHT22;26931;43.498;-1.506;2022-12-10T09:40:17;6.70;82.10
34644;DHT22;26931;43.498;-1.506;2022-12-10T09:43:04;6.80;81.60
34644;DHT22;26931;43.498;-1.506;2022-12-10T09:48:32;6.80;80.40
34644;DHT22;26931;43.498;-1.506;2022-12-10T09:51:12;6.90;79.50
34644;DHT22;26931;43.498;-1.506;2022-12-10T09:53:40;6.90;78.40
34644;DHT22;26931;43.498;-1.506;2022-12-10T09:56:22;6.90;77.80
34644;DHT22;26931;43.498;-1.506;2022-12-10T09:58:49;6.90;77.10
34644;DHT22;26931;43.498;-1.506;2022-12-10T10:01:16;6.90;76.60
34644;DHT22;26931;43.498;-1.506;2022-12-10T10:03:46;7.00;76.40
34644;DHT22;26931;43.498;-1.506;2022-12-10T10:06:13;7.00;76.00
34644;DHT22;26931;43.498;-1.506;2022-12-10T10:08:47;7.10;75.50
34644;DHT22;26931;43.498;-1.506;2022-12-10T10:11:20;7.10;74.60
34644;DHT22;26931;43.498;-1.506;2022-12-10T10:13:50;7.10;74.10
34644;DHT22;26931;43.498;-1.506;2022-12-10T10:16:44;7.10;73.90
34644;DHT22;26931;43.498;-1.506;2022-12-10T10:19:17;7.20;73.50
34644;DHT22;26931;43.498;-1.506;2022-12-10T10:21:47;7.20;73.20
34644;DHT22;26931;43.498;-1.506;2022-12-10T10:24:16;7.20;73.10
34644;DHT22;26931;43.498;-1.506;2022-12-10T10:26:43;7.40;73.10
34644;DHT22;26931;43.498;-1.506;2022-12-10T10:29:14;7.40;72.80
34644;DHT22;26931;43.498;-1.506;2022-12-10T10:31:44;7.40;72.60
34644;DHT22;26931;43.498;-1.506;2022-12-10T10:34:18;7.50;72.50
34644;DHT22;26931;43.498;-1.506;2022-12-10T10:36:56;7.40;72.30
34644;DHT22;26931;43.498;-1.506;2022-12-10T10:39:30;7.40;72.00
34644;DHT22;26931;43.498;-1.506;2022-12-10T10:42:08;7.50;71.60
34644;DHT22;26931;43.498;-1.506;2022-12-10T10:44:38;7.50;71.30
34644;DHT22;26931;43.498;-1.506;2022-12-10T10:47:32;7.60;71.80
34644;DHT22;26931;43.498;-1.506;2022-12-10T10:49:59;7.60;70.40
34644;DHT22;26931;43.498;-1.506;2022-12-10T10:52:29;7.80;70.50
34644;DHT22;26931;43.498;-1.506;2022-12-10T10:54:56;7.70;70.40
34644;DHT22;26931;43.498;-1.506;2022-12-10T10:57:35;7.70;70.00
34644;DHT22;26931;43.498;-1.506;2022-12-10T11:00:21;7.80;69.80
34644;DHT22;26931;43.498;-1.506;2022-12-10T11:02:48;7.80;69.40
34644;DHT22;26931;43.498;-1.506;2022-12-10T11:05:20;7.80;69.40
34644;DHT22;26931;43.498;-1.506;2022-12-10T11:08:05;7.80;69.30
34644;DHT22;26931;43.498;-1.506;2022-12-10T11:10:46;7.90;69.10
34644;DHT22;26931;43.498;-1.506;2022-12-10T11:13:23;7.90;69.00
34644;DHT22;26931;43.498;-1.506;2022-12-10T11:18:38;7.90;68.20
34644;DHT22;26931;43.498;-1.506;2022-12-10T11:23:42;7.90;68.90
34644;DHT22;26931;43.498;-1.506;2022-12-10T11:34:25;8.00;67.60
34644;DHT22;26931;43.498;-1.506;2022-12-10T11:37:32;8.10;67.70
34644;DHT22;26931;43.498;-1.506;2022-12-10T11:40:15;8.10;67.10
34644;DHT22;26931;43.498;-1.506;2022-12-10T11:45:24;8.10;66.90
34644;DHT22;26931;43.498;-1.506;2022-12-10T11:48:02;8.10;66.60
34644;DHT22;26931;43.498;-1.506;2022-12-10T12:01:29;8.20;65.50
34644;DHT22;26931;43.498;-1.506;2022-12-10T12:10:05;8.40;64.60
34644;DHT22;26931;43.498;-1.506;2022-12-10T12:15:45;8.40;63.80
34644;DHT22;26931;43.498;-1.506;2022-12-10T12:18:36;8.40;63.70
34644;DHT22;26931;43.498;-1.506;2022-12-10T12:21:19;8.40;63.60
34644;DHT22;26931;43.498;-1.506;2022-12-10T12:24:04;8.40;63.50
34644;DHT22;26931;43.498;-1.506;2022-12-10T12:27:02;8.40;63.20
34644;DHT22;26931;43.498;-1.506;2022-12-10T12:30:01;8.40;62.70
34644;DHT22;26931;43.498;-1.506;2022-12-10T12:32:46;8.40;62.70
34644;DHT22;26931;43.498;-1.506;2022-12-10T12:35:29;8.40;62.50
34644;DHT22;26931;43.498;-1.506;2022-12-10T12:38:28;8.50;62.50
34644;DHT22;26931;43.498;-1.506;2022-12-10T12:41:17;8.50;62.30
34644;DHT22;26931;43.498;-1.506;2022-12-10T12:43:55;8.50;62.40
34644;DHT22;26931;43.498;-1.506;2022-12-10T12:46:32;8.50;62.30
34644;DHT22;26931;43.498;-1.506;2022-12-10T12:49:09;8.50;62.10
34644;DHT22;26931;43.498;-1.506;2022-12-10T12:54:21;8.70;62.30
34644;DHT22;26931;43.498;-1.506;2022-12-10T12:57:25;8.50;61.60
34644;DHT22;26931;43.498;-1.506;2022-12-10T13:00:10;8.60;61.50
34644;DHT22;26931;43.498;-1.506;2022-12-10T13:03:27;8.60;61.40
34644;DHT22;26931;43.498;-1.506;2022-12-10T13:05:44;8.60;60.80
34644;DHT22;26931;43.498;-1.506;2022-12-10T13:08:28;8.60;60.50
34644;DHT22;26931;43.498;-1.506;2022-12-10T13:13:35;8.60;60.10
34644;DHT22;26931;43.498;-1.506;2022-12-10T13:27:33;8.80;60.30
34644;DHT22;26931;43.498;-1.506;2022-12-10T13:30:34;8.80;59.80
34644;DHT22;26931;43.498;-1.506;2022-12-10T13:33:20;8.80;59.40
34644;DHT22;26931;43.498;-1.506;2022-12-10T13:35:56;8.80;59.20
34644;DHT22;26931;43.498;-1.506;2022-12-10T13:38:25;8.80;59.20
34644;DHT22;26931;43.498;-1.506;2022-12-10T13:41:05;8.80;59.20
34644;DHT22;26931;43.498;-1.506;2022-12-10T13:43:58;8.80;59.10
34644;DHT22;26931;43.498;-1.506;2022-12-10T13:47:19;8.80;58.90
34644;DHT22;26931;43.498;-1.506;2022-12-10T13:50:06;8.80;58.90
34644;DHT22;26931;43.498;-1.506;2022-12-10T13:56:07;8.90;59.50
34644;DHT22;26931;43.498;-1.506;2022-12-10T14:01:46;8.90;59.40
34644;DHT22;26931;43.498;-1.506;2022-12-10T14:07:25;9.00;58.80
34644;DHT22;26931;43.498;-1.506;2022-12-10T14:10:11;9.00;58.90
34644;DHT22;26931;43.498;-1.506;2022-12-10T14:12:46;9.00;58.80
34644;DHT22;26931;43.498;-1.506;2022-12-10T14:15:18;9.00;58.90
34644;DHT22;26931;43.498;-1.506;2022-12-10T14:17:49;9.00;58.80
34644;DHT22;26931;43.498;-1.506;2022-12-10T14:20:25;9.00;58.80
34644;DHT22;26931;43.498;-1.506;2022-12-10T14:22:55;9.00;58.50
34644;DHT22;26931;43.498;-1.506;2022-12-10T14:25:46;9.00;58.40
34644;DHT22;26931;43.498;-1.506;2022-12-10T14:28:18;9.00;58.40
34644;DHT22;26931;43.498;-1.506;2022-12-10T14:30:50;9.00;58.40
34644;DHT22;26931;43.498;-1.506;2022-12-10T14:33:25;9.00;58.30
34644;DHT22;26931;43.498;-1.506;2022-12-10T14:35:52;9.10;58.10
34644;DHT22;26931;43.498;-1.506;2022-12-10T14:38:29;9.20;58.00
34644;DHT22;26931;43.498;-1.506;2022-12-10T14:41:00;9.10;57.80
34644;DHT22;26931;43.498;-1.506;2022-12-10T14:43:40;9.00;57.80
34644;DHT22;26931;43.498;-1.506;2022-12-10T14:46:23;9.10;58.00
34644;DHT22;26931;43.498;-1.506;2022-12-10T14:48:50;9.10;58.00
34644;DHT22;26931;43.498;-1.506;2022-12-10T14:51:20;9.10;58.00
34644;DHT22;26931;43.498;-1.506;2022-12-10T14:53:51;9.10;57.90
34644;DHT22;26931;43.498;-1.506;2022-12-10T14:59:19;9.10;57.60
34644;DHT22;26931;43.498;-1.506;2022-12-10T15:02:05;9.10;57.50
34644;DHT22;26931;43.498;-1.506;2022-12-10T15:04:41;9.10;57.70
34644;DHT22;26931;43.498;-1.506;2022-12-10T15:07:27;9.00;57.60
34644;DHT22;26931;43.498;-1.506;2022-12-10T15:10:06;9.10;57.50
34644;DHT22;26931;43.498;-1.506;2022-12-10T15:12:42;9.00;57.50
34644;DHT22;26931;43.498;-1.506;2022-12-10T15:15:19;9.10;57.50
34644;DHT22;26931;43.498;-1.506;2022-12-10T15:18:09;9.10;57.60
34644;DHT22;26931;43.498;-1.506;2022-12-10T15:20:51;9.10;57.60
34644;DHT22;26931;43.498;-1.506;2022-12-10T15:28:38;9.10;57.80
34644;DHT22;26931;43.498;-1.506;2022-12-10T15:33:52;9.10;58.20
34644;DHT22;26931;43.498;-1.506;2022-12-10T15:36:37;9.00;57.70
34644;DHT22;26931;43.498;-1.506;2022-12-10T15:41:41;9.00;57.90
34644;DHT22;26931;43.498;-1.506;2022-12-10T15:44:32;9.00;58.10
34644;DHT22;26931;43.498;-1.506;2022-12-10T15:47:25;9.00;58.10
34644;DHT22;26931;43.498;-1.506;2022-12-10T15:49:57;9.00;58.10
34644;DHT22;26931;43.498;-1.506;2022-12-10T15:52:29;8.90;58.10
34644;DHT22;26931;43.498;-1.506;2022-12-10T15:54:56;8.90;58.50
34644;DHT22;26931;43.498;-1.506;2022-12-10T15:57:25;8.90;58.00
34644;DHT22;26931;43.498;-1.506;2022-12-10T16:00:14;8.90;58.10
34644;DHT22;26931;43.498;-1.506;2022-12-10T16:02:50;8.90;58.10
34644;DHT22;26931;43.498;-1.506;2022-12-10T16:07:58;8.80;57.80
34644;DHT22;26931;43.498;-1.506;2022-12-10T16:10:28;8.80;57.90
34644;DHT22;26931;43.498;-1.506;2022-12-10T16:13:05;8.80;58.00
34644;DHT22;26931;43.498;-1.506;2022-12-10T16:15:44;8.70;58.10
34644;DHT22;26931;43.498;-1.506;2022-12-10T16:18:11;8.70;58.20
34644;DHT22;26931;43.498;-1.506;2022-12-10T16:20:37;8.70;58.30
34644;DHT22;26931;43.498;-1.506;2022-12-10T16:23:03;8.70;58.30
34644;DHT22;26931;43.498;-1.506;2022-12-10T16:25:35;8.60;58.30
34644;DHT22;26931;43.498;-1.506;2022-12-10T16:28:05;8.60;58.40
34644;DHT22;26931;43.498;-1.506;2022-12-10T16:30:46;8.60;59.00
34644;DHT22;26931;43.498;-1.506;2022-12-10T16:33:16;8.50;59.20
34644;DHT22;26931;43.498;-1.506;2022-12-10T16:35:54;8.50;59.10
34644;DHT22;26931;43.498;-1.506;2022-12-10T16:38:23;8.50;59.10
34644;DHT22;26931;43.498;-1.506;2022-12-10T16:40:53;8.50;59.30
34644;DHT22;26931;43.498;-1.506;2022-12-10T16:43:24;8.40;59.80
34644;DHT22;26931;43.498;-1.506;2022-12-10T16:45:54;8.40;60.40
34644;DHT22;26931;43.498;-1.506;2022-12-10T16:48:23;8.30;61.20
34644;DHT22;26931;43.498;-1.506;2022-12-10T16:50:52;8.20;62.20
34644;DHT22;26931;43.498;-1.506;2022-12-10T16:53:29;8.10;63.60
34644;DHT22;26931;43.498;-1.506;2022-12-10T16:56:00;8.00;64.70
34644;DHT22;26931;43.498;-1.506;2022-12-10T16:58:29;8.00;65.60
34644;DHT22;26931;43.498;-1.506;2022-12-10T17:00:55;7.80;66.30
34644;DHT22;26931;43.498;-1.506;2022-12-10T17:03:24;7.90;67.00
34644;DHT22;26931;43.498;-1.506;2022-12-10T17:06:01;7.90;67.00
34644;DHT22;26931;43.498;-1.506;2022-12-10T17:08:34;7.90;67.30
34644;DHT22;26931;43.498;-1.506;2022-12-10T17:11:00;7.70;67.70
34644;DHT22;26931;43.498;-1.506;2022-12-10T17:13:45;7.70;68.30
34644;DHT22;26931;43.498;-1.506;2022-12-10T17:16:21;7.80;68.60
34644;DHT22;26931;43.498;-1.506;2022-12-10T17:18:48;7.70;68.80
34644;DHT22;26931;43.498;-1.506;2022-12-10T17:21:18;7.70;69.40
34644;DHT22;26931;43.498;-1.506;2022-12-10T17:23:44;7.70;70.40
34644;DHT22;26931;43.498;-1.506;2022-12-10T17:26:37;7.60;70.90
34644;DHT22;26931;43.498;-1.506;2022-12-10T17:31:37;7.60;72.10
34644;DHT22;26931;43.498;-1.506;2022-12-10T17:34:09;7.60;72.50
34644;DHT22;26931;43.498;-1.506;2022-12-10T17:36:40;7.50;73.00
34644;DHT22;26931;43.498;-1.506;2022-12-10T17:39:13;7.40;73.40
34644;DHT22;26931;43.498;-1.506;2022-12-10T17:41:43;7.50;74.00